sensor_id;sensor_type;location;lat;lon;timestamp;temperature;humidity
418;DHT22;49;48.530;9.200;2023-07-13T00:01:53;25.90;37.60
418;DHT22;49;48.530;9.200;2023-07-13T00:04:22;26.10;35.10
418;DHT22;49;48.530;9.200;2023-07-13T00:06:53;26.30;30.20
418;DHT22;49;48.530;9.200;2023-07-13T00:09:21;26.30;30.70
418;DHT22;49;48.530;9.200;2023-07-13T00:11:51;26.30;32.60
418;DHT22;49;48.530;9.200;2023-07-13T00:14:19;26.30;29.20
418;DHT22;49;48.530;9.200;2023-07-13T00:16:47;25.70;30.90
418;DHT22;49;48.530;9.200;2023-07-13T00:19:14;25.60;32.80
418;DHT22;49;48.530;9.200;2023-07-13T00:21:42;25.50;33.90
418;DHT22;49;48.530;9.200;2023-07-13T00:24:17;25.20;34.60
418;DHT22;49;48.530;9.200;2023-07-13T00:26:49;25.00;37.70
418;DHT22;49;48.530;9.200;2023-07-13T00:29:16;24.90;40.40
418;DHT22;49;48.530;9.200;2023-07-13T00:31:43;24.80;41.60
418;DHT22;49;48.530;9.200;2023-07-13T00:34:11;24.70;42.00
418;DHT22;49;48.530;9.200;2023-07-13T00:36:38;25.10;39.70
418;DHT22;49;48.530;9.200;2023-07-13T00:39:06;25.20;40.30
418;DHT22;49;48.530;9.200;2023-07-13T00:41:35;25.30;40.10
418;DHT22;49;48.530;9.200;2023-07-13T00:44:02;24.90;41.70
418;DHT22;49;48.530;9.200;2023-07-13T00:46:31;24.60;44.40
418;DHT22;49;48.530;9.200;2023-07-13T00:49:00;24.30;47.60
418;DHT22;49;48.530;9.200;2023-07-13T00:51:34;24.10;49.10
418;DHT22;49;48.530;9.200;2023-07-13T00:54:05;24.10;52.20
418;DHT22;49;48.530;9.200;2023-07-13T00:56:35;23.90;53.20
418;DHT22;49;48.530;9.200;2023-07-13T00:59:05;23.70;58.30
418;DHT22;49;48.530;9.200;2023-07-13T01:01:33;23.60;58.10
418;DHT22;49;48.530;9.200;2023-07-13T01:04:02;23.50;63.30
418;DHT22;49;48.530;9.200;2023-07-13T01:06:29;23.30;63.80
418;DHT22;49;48.530;9.200;2023-07-13T01:08:58;23.40;64.20
418;DHT22;49;48.530;9.200;2023-07-13T01:11:27;23.50;61.90
418;DHT22;49;48.530;9.200;2023-07-13T01:13:55;23.40;63.50
418;DHT22;49;48.530;9.200;2023-07-13T01:16:25;23.60;64.20
418;DHT22;49;48.530;9.200;2023-07-13T01:18:52;23.60;62.30
418;DHT22;49;48.530;9.200;2023-07-13T01:21:20;23.80;60.90
418;DHT22;49;48.530;9.200;2023-07-13T01:23:47;23.80;60.30
418;DHT22;49;48.530;9.200;2023-07-13T01:26:14;24.00;57.10
418;DHT22;49;48.530;9.200;2023-07-13T01:28:41;24.40;53.80
418;DHT22;49;48.530;9.200;2023-07-13T01:31:08;24.60;51.20
418;DHT22;49;48.530;9.200;2023-07-13T01:33:36;24.60;51.20
418;DHT22;49;48.530;9.200;2023-07-13T01:36:03;24.60;49.20
418;DHT22;49;48.530;9.200;2023-07-13T01:38:33;24.90;47.50
418;DHT22;49;48.530;9.200;2023-07-13T01:41:00;25.40;44.50
418;DHT22;49;48.530;9.200;2023-07-13T01:43:27;25.60;41.20
418;DHT22;49;48.530;9.200;2023-07-13T01:45:54;25.50;41.40
418;DHT22;49;48.530;9.200;2023-07-13T01:48:21;25.20;41.90
418;DHT22;49;48.530;9.200;2023-07-13T01:50:48;25.00;43.70
418;DHT22;49;48.530;9.200;2023-07-13T01:53:15;25.20;43.00
418;DHT22;49;48.530;9.200;2023-07-13T01:55:43;25.10;40.50
418;DHT22;49;48.530;9.200;2023-07-13T01:58:10;25.10;39.10
418;DHT22;49;48.530;9.200;2023-07-13T02:00:37;25.10;41.60
418;DHT22;49;48.530;9.200;2023-07-13T02:03:04;25.00;38.50
418;DHT22;49;48.530;9.200;2023-07-13T02:05:31;24.80;39.20
418;DHT22;49;48.530;9.200;2023-07-13T02:07:58;24.70;40.30
418;DHT22;49;48.530;9.200;2023-07-13T02:10:25;24.60;41.40
418;DHT22;49;48.530;9.200;2023-07-13T02:12:53;24.60;41.50
418;DHT22;49;48.530;9.200;2023-07-13T02:15:20;24.50;42.00
418;DHT22;49;48.530;9.200;2023-07-13T02:17:46;24.70;43.30
418;DHT22;49;48.530;9.200;2023-07-13T02:20:13;25.00;40.70
418;DHT22;49;48.530;9.200;2023-07-13T02:22:40;25.00;40.20
418;DHT22;49;48.530;9.200;2023-07-13T02:25:07;24.70;40.10
418;DHT22;49;48.530;9.200;2023-07-13T02:27:34;24.50;41.60
418;DHT22;49;48.530;9.200;2023-07-13T02:30:03;24.20;47.10
418;DHT22;49;48.530;9.200;2023-07-13T02:32:30;24.30;43.80
418;DHT22;49;48.530;9.200;2023-07-13T02:34:57;24.70;43.40
418;DHT22;49;48.530;9.200;2023-07-13T02:37:24;25.00;40.30
418;DHT22;49;48.530;9.200;2023-07-13T02:39:51;25.20;39.30
418;DHT22;49;48.530;9.200;2023-07-13T02:42:18;25.30;36.80
418;DHT22;49;48.530;9.200;2023-07-13T02:44:44;25.20;36.40
418;DHT22;49;48.530;9.200;2023-07-13T02:47:13;25.20;39.60
418;DHT22;49;48.530;9.200;2023-07-13T02:49:40;25.40;36.60
418;DHT22;49;48.530;9.200;2023-07-13T02:52:07;25.30;34.90
418;DHT22;49;48.530;9.200;2023-07-13T02:54:33;25.40;36.10
418;DHT22;49;48.530;9.200;2023-07-13T02:57:00;25.40;38.00
418;DHT22;49;48.530;9.200;2023-07-13T02:59:27;25.40;34.60
418;DHT22;49;48.530;9.200;2023-07-13T03:01:54;25.40;35.90
418;DHT22;49;48.530;9.200;2023-07-13T03:04:22;25.40;35.40
418;DHT22;49;48.530;9.200;2023-07-13T03:06:49;25.00;37.30
418;DHT22;49;48.530;9.200;2023-07-13T03:09:16;24.70;38.10
418;DHT22;49;48.530;9.200;2023-07-13T03:11:43;24.60;38.70
418;DHT22;49;48.530;9.200;2023-07-13T03:14:10;24.20;41.00
418;DHT22;49;48.530;9.200;2023-07-13T03:16:37;24.30;41.90
418;DHT22;49;48.530;9.200;2023-07-13T03:19:04;24.60;38.50
418;DHT22;49;48.530;9.200;2023-07-13T03:21:32;24.50;38.90
418;DHT22;49;48.530;9.200;2023-07-13T03:23:59;24.00;39.50
418;DHT22;49;48.530;9.200;2023-07-13T03:26:26;23.80;40.70
418;DHT22;49;48.530;9.200;2023-07-13T03:28:53;23.80;41.80
418;DHT22;49;48.530;9.200;2023-07-13T03:31:21;23.90;43.20
418;DHT22;49;48.530;9.200;2023-07-13T03:33:49;24.00;40.90
418;DHT22;49;48.530;9.200;2023-07-13T03:36:18;23.90;40.80
418;DHT22;49;48.530;9.200;2023-07-13T03:38:47;24.20;40.80
418;DHT22;49;48.530;9.200;2023-07-13T03:41:14;24.40;39.50
418;DHT22;49;48.530;9.200;2023-07-13T03:43:42;24.60;39.70
418;DHT22;49;48.530;9.200;2023-07-13T03:46:09;24.70;37.80
418;DHT22;49;48.530;9.200;2023-07-13T03:48:36;24.90;36.70
418;DHT22;49;48.530;9.200;2023-07-13T03:51:05;24.80;37.10
418;DHT22;49;48.530;9.200;2023-07-13T03:53:32;24.80;37.50
418;DHT22;49;48.530;9.200;2023-07-13T03:56:00;24.90;38.50
418;DHT22;49;48.530;9.200;2023-07-13T03:58:30;25.00;36.50
418;DHT22;49;48.530;9.200;2023-07-13T04:00:58;25.20;34.40
418;DHT22;49;48.530;9.200;2023-07-13T04:03:25;25.00;34.30
418;DHT22;49;48.530;9.200;2023-07-13T04:05:54;24.80;35.60
418;DHT22;49;48.530;9.200;2023-07-13T04:08:25;24.90;35.00
418;DHT22;49;48.530;9.200;2023-07-13T04:10:52;25.00;34.30
418;DHT22;49;48.530;9.200;2023-07-13T04:13:21;25.00;34.30
418;DHT22;49;48.530;9.200;2023-07-13T04:15:48;25.10;34.50
418;DHT22;49;48.530;9.200;2023-07-13T04:18:15;25.00;34.30
418;DHT22;49;48.530;9.200;2023-07-13T04:20:42;24.80;34.20
418;DHT22;49;48.530;9.200;2023-07-13T04:23:09;24.90;36.30
418;DHT22;49;48.530;9.200;2023-07-13T04:25:36;24.80;34.80
418;DHT22;49;48.530;9.200;2023-07-13T04:28:04;25.00;36.70
418;DHT22;49;48.530;9.200;2023-07-13T04:30:32;24.90;35.40
418;DHT22;49;48.530;9.200;2023-07-13T04:32:59;25.00;34.30
418;DHT22;49;48.530;9.200;2023-07-13T04:35:26;24.90;35.30
418;DHT22;49;48.530;9.200;2023-07-13T04:37:53;24.60;34.60
418;DHT22;49;48.530;9.200;2023-07-13T04:40:20;24.30;37.00
418;DHT22;49;48.530;9.200;2023-07-13T04:42:47;24.40;37.00
418;DHT22;49;48.530;9.200;2023-07-13T04:45:14;24.40;36.80
418;DHT22;49;48.530;9.200;2023-07-13T04:47:44;24.30;37.40
418;DHT22;49;48.530;9.200;2023-07-13T04:50:13;24.20;37.70
418;DHT22;49;48.530;9.200;2023-07-13T04:52:41;24.40;36.20
418;DHT22;49;48.530;9.200;2023-07-13T04:55:08;24.70;35.50
418;DHT22;49;48.530;9.200;2023-07-13T04:57:35;24.90;34.20
418;DHT22;49;48.530;9.200;2023-07-13T05:00:02;24.80;35.00
418;DHT22;49;48.530;9.200;2023-07-13T05:02:33;24.80;34.60
418;DHT22;49;48.530;9.200;2023-07-13T05:05:02;24.80;35.00
418;DHT22;49;48.530;9.200;2023-07-13T05:07:29;24.70;35.20
418;DHT22;49;48.530;9.200;2023-07-13T05:09:58;24.90;35.60
418;DHT22;49;48.530;9.200;2023-07-13T05:12:25;24.90;34.20
418;DHT22;49;48.530;9.200;2023-07-13T05:14:52;25.00;33.60
418;DHT22;49;48.530;9.200;2023-07-13T05:17:18;25.00;33.40
418;DHT22;49;48.530;9.200;2023-07-13T05:19:45;25.10;33.20
418;DHT22;49;48.530;9.200;2023-07-13T05:22:14;25.20;32.80
418;DHT22;49;48.530;9.200;2023-07-13T05:24:40;25.40;33.00
418;DHT22;49;48.530;9.200;2023-07-13T05:27:07;25.70;31.80
418;DHT22;49;48.530;9.200;2023-07-13T05:29:34;25.70;31.20
418;DHT22;49;48.530;9.200;2023-07-13T05:32:01;25.50;31.50
418;DHT22;49;48.530;9.200;2023-07-13T05:34:29;24.80;33.50
418;DHT22;49;48.530;9.200;2023-07-13T05:36:55;23.90;37.20
418;DHT22;49;48.530;9.200;2023-07-13T05:39:24;23.80;38.10
418;DHT22;49;48.530;9.200;2023-07-13T05:41:51;23.60;38.90
418;DHT22;49;48.530;9.200;2023-07-13T05:44:18;23.50;39.40
418;DHT22;49;48.530;9.200;2023-07-13T05:46:45;23.80;39.40
418;DHT22;49;48.530;9.200;2023-07-13T05:49:12;23.80;38.30
418;DHT22;49;48.530;9.200;2023-07-13T05:51:39;23.60;39.60
418;DHT22;49;48.530;9.200;2023-07-13T05:54:06;23.40;42.30
418;DHT22;49;48.530;9.200;2023-07-13T05:56:34;23.30;45.20
418;DHT22;49;48.530;9.200;2023-07-13T05:59:01;23.50;48.90
418;DHT22;49;48.530;9.200;2023-07-13T06:01:30;24.90;40.80
418;DHT22;49;48.530;9.200;2023-07-13T06:03:57;26.10;39.70
418;DHT22;49;48.530;9.200;2023-07-13T06:06:24;27.40;32.40
418;DHT22;49;48.530;9.200;2023-07-13T06:08:51;28.00;26.30
418;DHT22;49;48.530;9.200;2023-07-13T06:11:19;27.90;25.40
418;DHT22;49;48.530;9.200;2023-07-13T06:13:49;27.80;25.40
418;DHT22;49;48.530;9.200;2023-07-13T06:16:16;27.90;25.30
418;DHT22;49;48.530;9.200;2023-07-13T06:18:44;28.10;24.20
418;DHT22;49;48.530;9.200;2023-07-13T06:21:14;28.10;23.20
418;DHT22;49;48.530;9.200;2023-07-13T06:23:41;28.60;23.40
418;DHT22;49;48.530;9.200;2023-07-13T06:26:09;29.50;21.30
418;DHT22;49;48.530;9.200;2023-07-13T06:28:36;30.60;20.70
418;DHT22;49;48.530;9.200;2023-07-13T06:31:07;31.60;16.70
418;DHT22;49;48.530;9.200;2023-07-13T06:33:35;32.40;15.40
418;DHT22;49;48.530;9.200;2023-07-13T06:36:03;32.80;14.60
418;DHT22;49;48.530;9.200;2023-07-13T06:38:30;32.70;14.30
418;DHT22;49;48.530;9.200;2023-07-13T06:40:57;33.90;12.50
418;DHT22;49;48.530;9.200;2023-07-13T06:43:24;34.80;11.60
418;DHT22;49;48.530;9.200;2023-07-13T06:45:54;35.00;9.00
418;DHT22;49;48.530;9.200;2023-07-13T06:48:22;35.70;8.40
418;DHT22;49;48.530;9.200;2023-07-13T06:50:50;36.70;7.30
418;DHT22;49;48.530;9.200;2023-07-13T06:53:19;36.30;5.10
418;DHT22;49;48.530;9.200;2023-07-13T06:55:46;36.80;3.50
418;DHT22;49;48.530;9.200;2023-07-13T06:58:15;37.10;3.50
418;DHT22;49;48.530;9.200;2023-07-13T07:00:42;37.50;2.20
418;DHT22;49;48.530;9.200;2023-07-13T07:03:09;37.10;2.20
418;DHT22;49;48.530;9.200;2023-07-13T07:05:37;37.90;1.70
418;DHT22;49;48.530;9.200;2023-07-13T07:08:05;37.90;1.80
418;DHT22;49;48.530;9.200;2023-07-13T07:10:31;37.70;1.00
418;DHT22;49;48.530;9.200;2023-07-13T07:12:58;36.60;1.60
418;DHT22;49;48.530;9.200;2023-07-13T07:15:26;36.80;1.60
418;DHT22;49;48.530;9.200;2023-07-13T07:17:53;36.80;1.20
418;DHT22;49;48.530;9.200;2023-07-13T07:20:20;37.10;1.00
418;DHT22;49;48.530;9.200;2023-07-13T07:22:48;37.50;1.00
418;DHT22;49;48.530;9.200;2023-07-13T07:25:15;37.10;1.00
418;DHT22;49;48.530;9.200;2023-07-13T07:27:42;36.70;1.00
418;DHT22;49;48.530;9.200;2023-07-13T07:30:10;36.20;1.00
418;DHT22;49;48.530;9.200;2023-07-13T07:32:37;36.40;1.20
418;DHT22;49;48.530;9.200;2023-07-13T07:35:04;36.60;1.50
418;DHT22;49;48.530;9.200;2023-07-13T07:37:31;36.60;1.00
418;DHT22;49;48.530;9.200;2023-07-13T07:39:59;36.70;1.00
418;DHT22;49;48.530;9.200;2023-07-13T07:42:26;36.90;1.00
418;DHT22;49;48.530;9.200;2023-07-13T07:44:53;38.20;1.00
418;DHT22;49;48.530;9.200;2023-07-13T07:47:20;37.60;1.00
418;DHT22;49;48.530;9.200;2023-07-13T07:49:48;37.80;1.00
418;DHT22;49;48.530;9.200;2023-07-13T07:52:15;38.10;1.00
418;DHT22;49;48.530;9.200;2023-07-13T07:54:42;38.10;1.00
418;DHT22;49;48.530;9.200;2023-07-13T07:57:10;37.80;1.00
418;DHT22;49;48.530;9.200;2023-07-13T07:59:37;38.10;1.00
418;DHT22;49;48.530;9.200;2023-07-13T08:02:05;38.10;1.00
418;DHT22;49;48.530;9.200;2023-07-13T08:04:32;38.20;1.00
418;DHT22;49;48.530;9.200;2023-07-13T08:06:59;38.50;1.00
418;DHT22;49;48.530;9.200;2023-07-13T08:09:28;38.50;1.00
418;DHT22;49;48.530;9.200;2023-07-13T08:11:55;38.70;1.00
418;DHT22;49;48.530;9.200;2023-07-13T08:14:23;39.10;1.00
418;DHT22;49;48.530;9.200;2023-07-13T08:16:50;39.30;1.00
418;DHT22;49;48.530;9.200;2023-07-13T08:19:16;39.40;1.00
418;DHT22;49;48.530;9.200;2023-07-13T08:21:43;38.90;1.00
418;DHT22;49;48.530;9.200;2023-07-13T08:24:10;39.00;1.00
418;DHT22;49;48.530;9.200;2023-07-13T08:26:37;38.90;1.00
418;DHT22;49;48.530;9.200;2023-07-13T08:29:04;38.90;1.00
418;DHT22;49;48.530;9.200;2023-07-13T08:31:32;37.60;1.00
418;DHT22;49;48.530;9.200;2023-07-13T08:33:59;36.50;1.00
418;DHT22;49;48.530;9.200;2023-07-13T08:36:26;36.30;1.00
418;DHT22;49;48.530;9.200;2023-07-13T08:38:53;36.50;1.00
418;DHT22;49;48.530;9.200;2023-07-13T08:41:20;36.40;1.00
418;DHT22;49;48.530;9.200;2023-07-13T08:43:49;36.50;1.00
418;DHT22;49;48.530;9.200;2023-07-13T08:46:20;36.40;1.00
418;DHT22;49;48.530;9.200;2023-07-13T08:48:51;35.80;1.00
418;DHT22;49;48.530;9.200;2023-07-13T08:51:29;34.90;1.00
418;DHT22;49;48.530;9.200;2023-07-13T08:53:59;34.90;1.00
418;DHT22;49;48.530;9.200;2023-07-13T08:56:29;34.70;1.00
418;DHT22;49;48.530;9.200;2023-07-13T08:58:58;35.30;1.00
418;DHT22;49;48.530;9.200;2023-07-13T09:01:31;35.50;1.00
418;DHT22;49;48.530;9.200;2023-07-13T09:04:05;34.30;1.00
418;DHT22;49;48.530;9.200;2023-07-13T09:06:40;34.00;1.10
418;DHT22;49;48.530;9.200;2023-07-13T09:09:18;34.10;1.70
418;DHT22;49;48.530;9.200;2023-07-13T09:11:50;34.40;1.30
418;DHT22;49;48.530;9.200;2023-07-13T09:14:34;34.10;2.70
418;DHT22;49;48.530;9.200;2023-07-13T09:17:04;34.40;1.00
418;DHT22;49;48.530;9.200;2023-07-13T09:19:33;34.10;1.00
418;DHT22;49;48.530;9.200;2023-07-13T09:22:02;33.40;1.20
418;DHT22;49;48.530;9.200;2023-07-13T09:24:36;34.00;1.70
418;DHT22;49;48.530;9.200;2023-07-13T09:27:13;34.20;1.00
418;DHT22;49;48.530;9.200;2023-07-13T09:29:47;34.00;1.40
418;DHT22;49;48.530;9.200;2023-07-13T09:32:18;33.70;4.40
418;DHT22;49;48.530;9.200;2023-07-13T09:34:52;33.80;1.70
418;DHT22;49;48.530;9.200;2023-07-13T09:37:21;33.20;3.80
418;DHT22;49;48.530;9.200;2023-07-13T09:39:49;33.00;1.50
418;DHT22;49;48.530;9.200;2023-07-13T09:42:19;33.10;2.00
418;DHT22;49;48.530;9.200;2023-07-13T09:44:55;32.30;2.10
418;DHT22;49;48.530;9.200;2023-07-13T09:47:24;32.00;3.20
418;DHT22;49;48.530;9.200;2023-07-13T09:49:58;31.40;3.60
418;DHT22;49;48.530;9.200;2023-07-13T09:52:26;31.00;3.10
418;DHT22;49;48.530;9.200;2023-07-13T09:54:54;30.70;4.10
418;DHT22;49;48.530;9.200;2023-07-13T09:57:26;30.70;4.50
418;DHT22;49;48.530;9.200;2023-07-13T09:59:55;30.70;3.60
418;DHT22;49;48.530;9.200;2023-07-13T10:02:26;30.70;3.80
418;DHT22;49;48.530;9.200;2023-07-13T10:04:59;30.90;4.10
418;DHT22;49;48.530;9.200;2023-07-13T10:07:26;31.50;4.80
418;DHT22;49;48.530;9.200;2023-07-13T10:09:53;31.20;2.40
418;DHT22;49;48.530;9.200;2023-07-13T10:12:21;31.30;2.70
418;DHT22;49;48.530;9.200;2023-07-13T10:14:51;31.70;3.10
418;DHT22;49;48.530;9.200;2023-07-13T10:17:24;31.90;2.70
418;DHT22;49;48.530;9.200;2023-07-13T10:19:52;32.10;3.00
418;DHT22;49;48.530;9.200;2023-07-13T10:22:26;32.10;5.20
418;DHT22;49;48.530;9.200;2023-07-13T10:24:54;31.90;2.40
418;DHT22;49;48.530;9.200;2023-07-13T10:27:29;30.90;4.80
418;DHT22;49;48.530;9.200;2023-07-13T10:30:02;30.60;3.80
418;DHT22;49;48.530;9.200;2023-07-13T10:32:34;31.10;2.50
418;DHT22;49;48.530;9.200;2023-07-13T10:35:01;31.70;2.80
418;DHT22;49;48.530;9.200;2023-07-13T10:37:43;32.40;1.30
418;DHT22;49;48.530;9.200;2023-07-13T10:40:13;32.50;1.60
418;DHT22;49;48.530;9.200;2023-07-13T10:42:44;33.20;1.20
418;DHT22;49;48.530;9.200;2023-07-13T10:45:14;33.80;1.00
418;DHT22;49;48.530;9.200;2023-07-13T10:47:43;33.90;1.00
418;DHT22;49;48.530;9.200;2023-07-13T10:50:17;33.90;1.00
418;DHT22;49;48.530;9.200;2023-07-13T10:52:48;33.10;1.00
418;DHT22;49;48.530;9.200;2023-07-13T10:55:36;32.50;1.00
418;DHT22;49;48.530;9.200;2023-07-13T10:58:12;32.50;1.00
418;DHT22;49;48.530;9.200;2023-07-13T11:00:46;32.00;1.20
418;DHT22;49;48.530;9.200;2023-07-13T11:03:16;32.20;1.30
418;DHT22;49;48.530;9.200;2023-07-13T11:05:44;32.70;1.00
418;DHT22;49;48.530;9.200;2023-07-13T11:08:20;32.60;1.00
418;DHT22;49;48.530;9.200;2023-07-13T11:10:53;33.20;1.00
418;DHT22;49;48.530;9.200;2023-07-13T11:13:36;33.40;1.00
418;DHT22;49;48.530;9.200;2023-07-13T11:16:13;33.40;1.00
418;DHT22;49;48.530;9.200;2023-07-13T11:18:40;32.50;1.00
418;DHT22;49;48.530;9.200;2023-07-13T11:21:18;31.50;2.30
418;DHT22;49;48.530;9.200;2023-07-13T11:23:52;31.40;3.70
418;DHT22;49;48.530;9.200;2023-07-13T11:26:39;31.90;2.00
418;DHT22;49;48.530;9.200;2023-07-13T11:29:09;32.30;1.80
418;DHT22;49;48.530;9.200;2023-07-13T11:31:36;32.70;1.60
418;DHT22;49;48.530;9.200;2023-07-13T11:34:10;32.60;1.00
418;DHT22;49;48.530;9.200;2023-07-13T11:36:43;31.70;2.70
418;DHT22;49;48.530;9.200;2023-07-13T11:39:18;32.00;1.90
418;DHT22;49;48.530;9.200;2023-07-13T11:41:50;32.00;3.80
418;DHT22;49;48.530;9.200;2023-07-13T11:44:19;31.10;3.70
418;DHT22;49;48.530;9.200;2023-07-13T11:46:48;30.60;4.20
418;DHT22;49;48.530;9.200;2023-07-13T11:49:21;30.40;3.50
418;DHT22;49;48.530;9.200;2023-07-13T11:51:48;30.40;3.80
418;DHT22;49;48.530;9.200;2023-07-13T11:54:24;30.60;4.10
418;DHT22;49;48.530;9.200;2023-07-13T11:56:53;31.50;2.20
418;DHT22;49;48.530;9.200;2023-07-13T11:59:21;31.90;1.80
418;DHT22;49;48.530;9.200;2023-07-13T12:01:51;32.20;1.40
418;DHT22;49;48.530;9.200;2023-07-13T12:04:22;31.90;2.90
418;DHT22;49;48.530;9.200;2023-07-13T12:06:55;31.90;2.60
418;DHT22;49;48.530;9.200;2023-07-13T12:09:27;31.90;1.40
418;DHT22;49;48.530;9.200;2023-07-13T12:11:54;32.00;2.10
418;DHT22;49;48.530;9.200;2023-07-13T12:14:22;32.10;1.40
418;DHT22;49;48.530;9.200;2023-07-13T12:16:52;31.90;1.50
418;DHT22;49;48.530;9.200;2023-07-13T12:19:21;32.00;1.80
418;DHT22;49;48.530;9.200;2023-07-13T12:21:49;31.90;2.50
418;DHT22;49;48.530;9.200;2023-07-13T12:24:18;31.20;1.40
418;DHT22;49;48.530;9.200;2023-07-13T12:26:52;31.20;2.10
418;DHT22;49;48.530;9.200;2023-07-13T12:29:21;31.90;1.00
418;DHT22;49;48.530;9.200;2023-07-13T12:31:49;32.30;1.50
418;DHT22;49;48.530;9.200;2023-07-13T12:34:20;32.40;1.00
418;DHT22;49;48.530;9.200;2023-07-13T12:36:49;32.50;1.00
418;DHT22;49;48.530;9.200;2023-07-13T12:39:20;32.30;1.80
418;DHT22;49;48.530;9.200;2023-07-13T12:41:48;32.30;1.00
418;DHT22;49;48.530;9.200;2023-07-13T12:44:18;32.00;1.00
418;DHT22;49;48.530;9.200;2023-07-13T12:46:58;31.80;1.00
418;DHT22;49;48.530;9.200;2023-07-13T12:49:30;31.90;1.00
418;DHT22;49;48.530;9.200;2023-07-13T12:52:02;32.00;1.00
418;DHT22;49;48.530;9.200;2023-07-13T12:54:30;31.80;1.00
418;DHT22;49;48.530;9.200;2023-07-13T12:56:58;31.70;1.10
418;DHT22;49;48.530;9.200;2023-07-13T12:59:31;31.40;1.80
418;DHT22;49;48.530;9.200;2023-07-13T13:02:02;31.20;2.80
418;DHT22;49;48.530;9.200;2023-07-13T13:04:39;32.00;1.00
418;DHT22;49;48.530;9.200;2023-07-13T13:07:09;32.60;1.00
418;DHT22;49;48.530;9.200;2023-07-13T13:09:36;32.80;1.00
418;DHT22;49;48.530;9.200;2023-07-13T13:12:03;32.60;1.00
418;DHT22;49;48.530;9.200;2023-07-13T13:14:33;32.50;1.00
418;DHT22;49;48.530;9.200;2023-07-13T13:17:00;32.40;1.00
418;DHT22;49;48.530;9.200;2023-07-13T13:19:28;32.60;1.00
418;DHT22;49;48.530;9.200;2023-07-13T13:21:56;32.70;1.00
418;DHT22;49;48.530;9.200;2023-07-13T13:24:27;32.80;1.00
418;DHT22;49;48.530;9.200;2023-07-13T13:26:54;32.80;1.00
418;DHT22;49;48.530;9.200;2023-07-13T13:29:23;33.10;1.00
418;DHT22;49;48.530;9.200;2023-07-13T13:31:52;32.80;1.00
418;DHT22;49;48.530;9.200;2023-07-13T13:34:20;32.90;1.00
418;DHT22;49;48.530;9.200;2023-07-13T13:36:49;33.30;1.00
418;DHT22;49;48.530;9.200;2023-07-13T13:39:21;33.60;1.00
418;DHT22;49;48.530;9.200;2023-07-13T13:41:50;33.40;1.00
418;DHT22;49;48.530;9.200;2023-07-13T13:44:18;33.50;1.00
418;DHT22;49;48.530;9.200;2023-07-13T13:46:47;33.60;1.00
418;DHT22;49;48.530;9.200;2023-07-13T13:49:18;33.40;1.00
418;DHT22;49;48.530;9.200;2023-07-13T13:51:46;33.20;1.00
418;DHT22;49;48.530;9.200;2023-07-13T13:54:14;33.30;1.50
418;DHT22;49;48.530;9.200;2023-07-13T13:56:42;32.80;1.00
418;DHT22;49;48.530;9.200;2023-07-13T13:59:09;32.80;1.00
418;DHT22;49;48.530;9.200;2023-07-13T14:01:37;32.30;1.00
418;DHT22;49;48.530;9.200;2023-07-13T14:04:04;32.50;1.00
418;DHT22;49;48.530;9.200;2023-07-13T14:06:33;32.60;1.00
418;DHT22;49;48.530;9.200;2023-07-13T14:09:01;32.50;1.00
418;DHT22;49;48.530;9.200;2023-07-13T14:11:28;32.40;1.00
418;DHT22;49;48.530;9.200;2023-07-13T14:13:57;32.40;1.00
418;DHT22;49;48.530;9.200;2023-07-13T14:16:27;32.40;1.00
418;DHT22;49;48.530;9.200;2023-07-13T14:18:55;32.50;1.00
418;DHT22;49;48.530;9.200;2023-07-13T14:21:26;32.50;1.00
418;DHT22;49;48.530;9.200;2023-07-13T14:23:54;32.40;1.00
418;DHT22;49;48.530;9.200;2023-07-13T14:26:23;32.50;1.00
418;DHT22;49;48.530;9.200;2023-07-13T14:28:53;33.10;1.00
418;DHT22;49;48.530;9.200;2023-07-13T14:31:21;33.20;2.80
418;DHT22;49;48.530;9.200;2023-07-13T14:33:48;33.40;1.00
418;DHT22;49;48.530;9.200;2023-07-13T14:36:23;33.20;1.00
418;DHT22;49;48.530;9.200;2023-07-13T14:38:52;33.00;1.00
418;DHT22;49;48.530;9.200;2023-07-13T14:41:20;32.90;1.00
418;DHT22;49;48.530;9.200;2023-07-13T14:43:47;32.80;1.00
418;DHT22;49;48.530;9.200;2023-07-13T14:46:26;33.00;1.00
418;DHT22;49;48.530;9.200;2023-07-13T14:49:00;32.50;1.00
418;DHT22;49;48.530;9.200;2023-07-13T14:51:28;32.50;1.00
418;DHT22;49;48.530;9.200;2023-07-13T14:53:55;32.60;1.00
418;DHT22;49;48.530;9.200;2023-07-13T14:56:24;32.90;1.00
418;DHT22;49;48.530;9.200;2023-07-13T14:58:51;33.10;1.00
418;DHT22;49;48.530;9.200;2023-07-13T15:01:19;33.40;1.00
418;DHT22;49;48.530;9.200;2023-07-13T15:03:49;33.40;1.00
418;DHT22;49;48.530;9.200;2023-07-13T15:06:17;33.00;1.00
418;DHT22;49;48.530;9.200;2023-07-13T15:08:45;32.80;1.00
418;DHT22;49;48.530;9.200;2023-07-13T15:11:12;32.40;1.30
418;DHT22;49;48.530;9.200;2023-07-13T15:13:41;32.40;1.00
418;DHT22;49;48.530;9.200;2023-07-13T15:16:15;32.60;1.00
418;DHT22;49;48.530;9.200;2023-07-13T15:18:44;32.80;1.00
418;DHT22;49;48.530;9.200;2023-07-13T15:21:14;33.00;1.00
418;DHT22;49;48.530;9.200;2023-07-13T15:23:43;32.50;1.00
418;DHT22;49;48.530;9.200;2023-07-13T15:26:12;32.50;1.00
418;DHT22;49;48.530;9.200;2023-07-13T15:28:42;32.50;1.00
418;DHT22;49;48.530;9.200;2023-07-13T15:31:18;32.50;1.00
418;DHT22;49;48.530;9.200;2023-07-13T15:33:46;32.60;1.00
418;DHT22;49;48.530;9.200;2023-07-13T15:36:15;32.60;1.00
418;DHT22;49;48.530;9.200;2023-07-13T15:38:42;32.40;1.00
418;DHT22;49;48.530;9.200;2023-07-13T15:41:17;32.40;1.00
418;DHT22;49;48.530;9.200;2023-07-13T15:43:45;32.10;1.00
418;DHT22;49;48.530;9.200;2023-07-13T15:46:13;31.80;1.70
418;DHT22;49;48.530;9.200;2023-07-13T15:48:40;31.30;1.80
418;DHT22;49;48.530;9.200;2023-07-13T15:51:12;31.20;2.70
418;DHT22;49;48.530;9.200;2023-07-13T15:53:41;31.30;2.00
418;DHT22;49;48.530;9.200;2023-07-13T15:56:18;31.50;1.70
418;DHT22;49;48.530;9.200;2023-07-13T15:58:47;31.80;1.40
418;DHT22;49;48.530;9.200;2023-07-13T16:01:14;31.70;1.60
418;DHT22;49;48.530;9.200;2023-07-13T16:03:41;31.40;1.70
418;DHT22;49;48.530;9.200;2023-07-13T16:06:14;31.20;2.10
418;DHT22;49;48.530;9.200;2023-07-13T16:08:42;31.20;2.30
418;DHT22;49;48.530;9.200;2023-07-13T16:11:18;31.20;2.60
418;DHT22;49;48.530;9.200;2023-07-13T16:13:47;30.90;4.00
418;DHT22;49;48.530;9.200;2023-07-13T16:16:17;30.50;3.30
418;DHT22;49;48.530;9.200;2023-07-13T16:18:44;30.50;3.00
418;DHT22;49;48.530;9.200;2023-07-13T16:21:11;30.80;3.10
418;DHT22;49;48.530;9.200;2023-07-13T16:23:39;30.90;3.10
418;DHT22;49;48.530;9.200;2023-07-13T16:26:25;31.10;3.10
418;DHT22;49;48.530;9.200;2023-07-13T16:28:54;31.10;3.40
418;DHT22;49;48.530;9.200;2023-07-13T16:31:29;31.10;2.90
418;DHT22;49;48.530;9.200;2023-07-13T16:33:57;31.20;3.20
418;DHT22;49;48.530;9.200;2023-07-13T16:36:25;31.30;2.50
418;DHT22;49;48.530;9.200;2023-07-13T16:44:55;31.10;3.30
418;DHT22;49;48.530;9.200;2023-07-13T16:47:23;31.10;3.60
418;DHT22;49;48.530;9.200;2023-07-13T16:49:50;31.30;3.70
418;DHT22;49;48.530;9.200;2023-07-13T16:52:19;31.20;3.70
418;DHT22;49;48.530;9.200;2023-07-13T16:54:46;31.40;3.50
418;DHT22;49;48.530;9.200;2023-07-13T16:57:16;31.60;2.80
418;DHT22;49;48.530;9.200;2023-07-13T16:59:45;31.60;3.00
418;DHT22;49;48.530;9.200;2023-07-13T17:02:32;31.60;2.80
418;DHT22;49;48.530;9.200;2023-07-13T17:05:00;31.40;2.70
418;DHT22;49;48.530;9.200;2023-07-13T17:07:27;31.40;3.30
418;DHT22;49;48.530;9.200;2023-07-13T17:09:54;31.10;3.00
418;DHT22;49;48.530;9.200;2023-07-13T17:12:21;30.90;3.00
418;DHT22;49;48.530;9.200;2023-07-13T17:14:48;30.70;3.40
418;DHT22;49;48.530;9.200;2023-07-13T17:17:17;30.60;4.60
418;DHT22;49;48.530;9.200;2023-07-13T17:19:46;30.30;4.90